createdAt,value
2022-10-15T00:00:52.007Z,4.95
2022-10-15T00:03:18.832Z,4.96
2022-10-15T00:05:45.488Z,4.95
2022-10-15T00:08:14.024Z,4.62
2022-10-15T00:10:41.396Z,4.26
2022-10-15T00:13:19.349Z,4.43
2022-10-15T00:15:45.957Z,4.72
2022-10-15T00:18:12.551Z,4.79
2022-10-15T00:20:41.893Z,4.95
2022-10-15T00:23:08.533Z,4.96
2022-10-15T00:25:35.288Z,4.73
2022-10-15T00:28:01.953Z,4.42
2022-10-15T00:30:28.642Z,4.54
2022-10-15T00:32:55.593Z,4.40
2022-10-15T00:35:22.169Z,4.22
2022-10-15T00:37:48.968Z,4.42
2022-10-15T00:40:15.750Z,4.55
2022-10-15T00:42:42.488Z,4.20
2022-10-15T00:45:12.800Z,4.28
2022-10-15T00:47:43.676Z,4.43
2022-10-15T00:50:18.528Z,4.62
2022-10-15T00:53:03.012Z,4.92
2022-10-15T00:55:42.602Z,5.19
2022-10-15T01:00:40.343Z,5.37
2022-10-15T01:03:08.131Z,5.42
2022-10-15T01:05:37.252Z,5.39
2022-10-15T01:08:04.870Z,5.26
2022-10-15T01:11:02.415Z,5.14
2022-10-15T01:13:41.861Z,5.30
2022-10-15T01:16:24.812Z,5.35
2022-10-15T01:19:02.924Z,5.37
2022-10-15T01:21:38.497Z,5.44
2022-10-15T01:24:05.118Z,5.57
2022-10-15T01:26:53.383Z,5.52
2022-10-15T01:29:44.225Z,5.25
2022-10-15T01:32:22.507Z,5.16
2022-10-15T01:35:03.965Z,5.25
2022-10-15T01:37:44.360Z,5.07
2022-10-15T01:40:19.836Z,4.62
2022-10-15T01:42:56.773Z,4.80
2022-10-15T01:45:31.944Z,5.12
2022-10-15T01:48:08.598Z,5.28
2022-10-15T01:50:38.353Z,5.50
2022-10-15T01:53:09.407Z,5.21
2022-10-15T01:55:37.896Z,4.93
2022-10-15T01:58:06.628Z,5.07
2022-10-15T02:00:33.263Z,5.31
2022-10-15T02:03:01.611Z,5.53
2022-10-15T02:05:39.520Z,5.49
2022-10-15T02:08:22.399Z,5.44
2022-10-15T02:11:09.641Z,5.60
2022-10-15T02:13:42.760Z,5.65
2022-10-15T02:16:29.448Z,5.48
2022-10-15T02:19:12.864Z,5.30
2022-10-15T02:21:45.584Z,5.27
2022-10-15T02:24:17.848Z,5.35
2022-10-15T02:26:45.181Z,5.27
2022-10-15T02:31:46.543Z,5.33
2022-10-15T02:34:18.568Z,5.56
2022-10-15T02:36:46.644Z,5.53
2022-10-15T02:39:19.049Z,5.51
2022-10-15T02:41:47.172Z,5.50
2022-10-15T02:44:13.859Z,5.72
2022-10-15T02:46:40.965Z,5.80
2022-10-15T02:49:08.323Z,5.80
2022-10-15T02:51:36.132Z,5.84
2022-10-15T02:54:04.301Z,6.05
2022-10-15T02:58:57.560Z,6.05
2022-10-15T03:01:24.394Z,6.05
2022-10-15T03:03:51.071Z,6.24
2022-10-15T03:06:17.716Z,6.19
2022-10-15T03:08:45.173Z,6.14
2022-10-15T03:11:11.862Z,6.11
2022-10-15T03:13:39.416Z,6.26
2022-10-15T03:16:08.346Z,6.24
2022-10-15T03:18:38.163Z,6.17
2022-10-15T03:21:07.149Z,6.10
2022-10-15T03:26:00.532Z,6.21
2022-10-15T03:28:27.112Z,6.13
2022-10-15T03:30:53.997Z,6.08
2022-10-15T03:33:23.124Z,6.22
2022-10-15T03:35:52.831Z,6.22
2022-10-15T03:38:19.563Z,6.09
2022-10-15T03:40:46.717Z,6.01
2022-10-15T03:43:13.493Z,6.13
2022-10-15T03:45:40.651Z,6.12
2022-10-15T03:48:07.797Z,6.05
2022-10-15T03:50:34.730Z,6.04
2022-10-15T03:53:05.845Z,6.12
2022-10-15T03:55:33.207Z,6.21
2022-10-15T03:57:59.863Z,6.11
2022-10-15T04:00:26.641Z,6.11
2022-10-15T04:02:53.384Z,6.25
2022-10-15T04:05:20.113Z,6.22
2022-10-15T04:07:47.504Z,6.02
2022-10-15T04:10:14.947Z,5.91
2022-10-15T04:12:41.540Z,5.98
2022-10-15T04:15:08.629Z,6.11
2022-10-15T04:17:35.181Z,6.08
2022-10-15T04:20:02.455Z,6.02
2022-10-15T04:22:29.068Z,6.09
2022-10-15T04:24:55.731Z,6.24
2022-10-15T04:27:22.357Z,6.21
2022-10-15T04:29:49.332Z,6.23
2022-10-15T04:32:17.023Z,6.37
2022-10-15T04:34:43.832Z,6.51
2022-10-15T04:37:10.379Z,6.42
2022-10-15T04:39:36.967Z,6.38
2022-10-15T04:42:03.724Z,6.47
2022-10-15T04:44:30.457Z,6.66
2022-10-15T04:46:57.151Z,6.55
2022-10-15T04:49:23.771Z,6.51
2022-10-15T04:51:52.348Z,6.65
2022-10-15T04:54:19.129Z,6.72
2022-10-15T04:56:48.007Z,6.64
2022-10-15T04:59:14.796Z,6.62
2022-10-15T05:01:41.415Z,6.73
2022-10-15T05:04:12.266Z,6.80
2022-10-15T05:06:40.444Z,6.70
2022-10-15T05:09:07.340Z,6.67
2022-10-15T05:11:37.059Z,6.82
2022-10-15T05:14:04.939Z,6.87
2022-10-15T05:16:31.596Z,6.78
2022-10-15T05:19:06.739Z,6.76
2022-10-15T05:21:35.016Z,6.90
2022-10-15T05:24:02.007Z,6.96
2022-10-15T05:26:29.802Z,6.89
2022-10-15T05:28:58.283Z,6.88
2022-10-15T05:31:27.815Z,7.05
2022-10-15T05:33:55.055Z,7.02
2022-10-15T05:36:27.496Z,6.94
2022-10-15T05:38:56.943Z,6.93
2022-10-15T05:41:24.240Z,7.13
2022-10-15T05:43:51.536Z,7.04
2022-10-15T05:46:19.333Z,7.01
2022-10-15T05:48:50.111Z,7.05
2022-10-15T05:51:17.516Z,7.22
2022-10-15T05:53:46.244Z,7.18
2022-10-15T05:56:16.559Z,7.13
2022-10-15T05:58:43.292Z,7.22
2022-10-15T06:01:12.102Z,7.34
2022-10-15T06:03:40.876Z,7.26
2022-10-15T06:06:34.956Z,7.28
2022-10-15T06:09:02.000Z,7.42
2022-10-15T06:11:28.851Z,7.40
2022-10-15T06:13:55.480Z,7.35
2022-10-15T06:16:24.069Z,7.44
2022-10-15T06:18:53.621Z,7.58
2022-10-15T06:21:20.441Z,7.49
2022-10-15T06:23:47.114Z,7.46
2022-10-15T06:26:13.829Z,7.64
2022-10-15T06:28:40.549Z,7.65
2022-10-15T06:31:07.863Z,7.63
2022-10-15T06:33:35.395Z,7.66
2022-10-15T06:36:03.996Z,7.83
2022-10-15T06:38:31.152Z,7.77
2022-10-15T06:40:57.828Z,7.75
2022-10-15T06:43:24.879Z,7.87
2022-10-15T06:45:51.707Z,7.97
2022-10-15T06:48:18.736Z,7.89
2022-10-15T06:50:45.876Z,7.90
2022-10-15T06:53:12.491Z,8.07
2022-10-15T06:55:41.643Z,8.02
2022-10-15T06:58:08.636Z,7.98
2022-10-15T07:03:06.554Z,8.15
2022-10-15T07:05:34.030Z,8.09
2022-10-15T07:08:02.422Z,8.08
2022-10-15T07:10:29.429Z,8.23
2022-10-15T07:12:56.224Z,8.23
2022-10-15T07:15:23.135Z,8.17
2022-10-15T07:18:01.158Z,8.22
2022-10-15T07:20:33.196Z,8.35
2022-10-15T07:23:04.170Z,8.27
2022-10-15T07:25:31.116Z,8.24
2022-10-15T07:27:57.865Z,8.41
2022-10-15T07:30:28.787Z,8.42
2022-10-15T07:32:59.743Z,8.38
2022-10-15T07:35:27.517Z,8.44
2022-10-15T07:37:54.601Z,8.58
2022-10-15T07:40:23.629Z,8.49
2022-10-15T07:43:00.031Z,8.44
2022-10-15T07:45:27.724Z,8.63
2022-10-15T07:47:54.791Z,8.64
2022-10-15T07:50:21.876Z,8.58
2022-10-15T07:52:48.459Z,8.71
2022-10-15T07:55:15.347Z,8.78
2022-10-15T07:57:41.984Z,8.69
2022-10-15T08:00:09.525Z,8.64
2022-10-15T08:02:36.199Z,8.82
2022-10-15T08:05:02.817Z,8.81
2022-10-15T08:07:30.996Z,8.76
2022-10-15T08:09:57.613Z,8.92
2022-10-15T08:12:24.559Z,9.05
2022-10-15T08:14:53.548Z,9.16
2022-10-15T08:17:20.131Z,9.26
2022-10-15T08:19:46.782Z,9.28
2022-10-15T08:22:13.360Z,9.30
2022-10-15T08:24:40.115Z,9.37
2022-10-15T08:27:06.733Z,9.45
2022-10-15T08:29:33.428Z,9.54
2022-10-15T08:32:00.066Z,9.54
2022-10-15T08:34:26.722Z,9.57
2022-10-15T08:36:53.377Z,9.59
2022-10-15T08:39:19.939Z,9.65
2022-10-15T08:41:53.202Z,9.63
2022-10-15T08:44:30.035Z,9.60
2022-10-15T08:47:05.009Z,9.62
2022-10-15T08:49:46.424Z,9.62
2022-10-15T08:52:26.532Z,9.65
2022-10-15T08:54:56.213Z,9.68
2022-10-15T08:57:37.388Z,9.68
2022-10-15T09:00:10.767Z,9.68
2022-10-15T09:02:48.100Z,9.78
2022-10-15T09:05:50.021Z,9.85
2022-10-15T09:08:32.591Z,9.83
2022-10-15T09:11:31.204Z,9.89
2022-10-15T09:13:58.168Z,9.81
2022-10-15T09:16:33.889Z,9.79
2022-10-15T09:19:04.845Z,9.82
2022-10-15T09:21:37.163Z,9.82
2022-10-15T09:24:04.581Z,9.84
2022-10-15T09:26:57.352Z,9.87
2022-10-15T09:29:35.857Z,9.87
2022-10-15T09:32:13.320Z,9.93
2022-10-15T09:35:02.127Z,9.97
2022-10-15T09:37:46.555Z,9.98
2022-10-15T09:40:30.907Z,10.02
2022-10-15T09:42:58.848Z,10.04
2022-10-15T09:45:28.004Z,10.04
2022-10-15T09:48:00.315Z,10.12
2022-10-15T09:50:45.152Z,10.16
2022-10-15T09:53:33.207Z,10.18
2022-10-15T09:56:23.187Z,10.23
2022-10-15T09:58:55.752Z,10.24
2022-10-15T10:01:35.612Z,10.28
2022-10-15T10:04:11.202Z,10.34
2022-10-15T10:06:57.952Z,10.35
2022-10-15T10:09:31.727Z,10.34
2022-10-15T10:12:04.984Z,10.35
2022-10-15T10:14:37.129Z,10.34
2022-10-15T10:17:04.955Z,10.35
2022-10-15T10:19:31.725Z,10.39
2022-10-15T10:22:13.922Z,10.43
2022-10-15T10:24:40.718Z,10.53
2022-10-15T10:27:28.047Z,10.58
2022-10-15T10:30:01.506Z,10.59
2022-10-15T10:32:33.999Z,10.59
2022-10-15T10:35:04.417Z,10.67
2022-10-15T10:37:43.129Z,10.73
2022-10-15T10:40:39.316Z,10.79
2022-10-15T10:43:17.755Z,10.84
2022-10-15T10:45:53.179Z,10.85
2022-10-15T10:48:22.330Z,10.84
2022-10-15T10:50:49.263Z,10.88
2022-10-15T10:53:24.378Z,10.90
2022-10-15T10:55:56.291Z,10.97
2022-10-15T10:58:27.257Z,11.01
2022-10-15T11:00:55.766Z,11.02
2022-10-15T11:03:29.653Z,10.95
2022-10-15T11:06:09.721Z,10.97
2022-10-15T11:09:12.610Z,10.98
2022-10-15T11:11:44.388Z,10.97
2022-10-15T11:14:17.786Z,10.99
2022-10-15T11:16:46.659Z,11.04
2022-10-15T11:19:50.515Z,11.09
2022-10-15T11:22:15.647Z,11.11
2022-10-15T11:25:05.899Z,11.17
2022-10-15T11:27:52.024Z,11.22
2022-10-15T11:30:39.076Z,11.28
2022-10-15T11:33:26.275Z,11.28
2022-10-15T11:36:23.849Z,11.33
2022-10-15T11:39:11.936Z,11.33
2022-10-15T11:41:49.276Z,11.31
2022-10-15T11:44:37.946Z,11.26
2022-10-15T11:47:21.320Z,11.29
2022-10-15T11:49:50.542Z,11.29
2022-10-15T11:52:55.820Z,11.30
2022-10-15T11:55:45.469Z,11.28
2022-10-15T11:58:33.831Z,11.36
2022-10-15T12:01:06.930Z,11.40
2022-10-15T12:03:42.352Z,11.36
2022-10-15T12:06:15.188Z,11.38
2022-10-15T12:08:44.039Z,11.43
2022-10-15T12:11:31.777Z,11.48
2022-10-15T12:14:18.631Z,11.53
2022-10-15T12:17:19.001Z,11.66
2022-10-15T12:19:52.493Z,11.66
2022-10-15T12:22:39.459Z,11.59
2022-10-15T12:25:27.336Z,11.63
2022-10-15T12:28:21.779Z,11.68
2022-10-15T12:31:04.230Z,11.68
2022-10-15T12:33:33.377Z,11.68
2022-10-15T12:36:10.727Z,11.67
2022-10-15T12:38:40.670Z,11.67
2022-10-15T12:41:10.534Z,11.67
2022-10-15T12:43:48.888Z,11.74
2022-10-15T12:46:15.550Z,11.81
2022-10-15T12:48:46.933Z,11.84
2022-10-15T12:51:16.383Z,11.84
2022-10-15T12:53:44.799Z,11.87
2022-10-15T12:56:22.544Z,11.95
2022-10-15T12:58:56.414Z,11.96
2022-10-15T13:01:23.119Z,12.01
2022-10-15T13:03:52.560Z,12.03
2022-10-15T13:06:25.104Z,12.05
2022-10-15T13:08:55.615Z,12.08
2022-10-15T13:11:24.320Z,12.10
2022-10-15T13:13:55.497Z,12.02
2022-10-15T13:16:23.075Z,12.01
2022-10-15T13:18:52.728Z,12.03
2022-10-15T13:21:19.625Z,12.12
2022-10-15T13:23:49.317Z,12.20
2022-10-15T13:26:20.393Z,12.24
2022-10-15T13:28:49.434Z,12.25
2022-10-15T13:31:31.474Z,12.25
2022-10-15T13:34:28.652Z,12.27
2022-10-15T13:37:00.424Z,12.28
2022-10-15T13:39:36.175Z,12.31
2022-10-15T13:42:09.310Z,12.36
2022-10-15T13:44:36.697Z,12.39
2022-10-15T13:47:04.336Z,12.43
2022-10-15T13:49:31.360Z,12.51
2022-10-15T13:51:58.062Z,12.54
2022-10-15T13:54:31.626Z,12.52
2022-10-15T13:57:01.897Z,12.51
2022-10-15T13:59:32.969Z,12.47
2022-10-15T14:02:02.201Z,12.44
2022-10-15T14:04:30.864Z,12.40
2022-10-15T14:07:04.186Z,12.45
2022-10-15T14:09:35.346Z,12.48
2022-10-15T14:12:04.745Z,12.45
2022-10-15T14:14:41.379Z,12.43
2022-10-15T14:17:17.342Z,12.43
2022-10-15T14:20:02.133Z,12.45
2022-10-15T14:22:35.433Z,12.44
2022-10-15T14:25:09.942Z,12.38
2022-10-15T14:27:36.495Z,12.17
2022-10-15T14:30:13.769Z,12.14
2022-10-15T14:32:47.907Z,12.16
2022-10-15T14:35:34.384Z,12.18
2022-10-15T14:38:03.780Z,12.19
2022-10-15T14:40:31.121Z,12.24
2022-10-15T14:43:06.776Z,12.21
2022-10-15T14:45:43.215Z,12.24
2022-10-15T14:48:18.859Z,12.22
2022-10-15T14:50:45.891Z,12.23
2022-10-15T14:53:24.367Z,12.21
2022-10-15T14:55:56.623Z,12.18
2022-10-15T14:58:26.604Z,12.17
2022-10-15T15:01:04.445Z,12.16
2022-10-15T15:03:53.899Z,12.22
2022-10-15T15:06:21.728Z,12.27
2022-10-15T15:08:49.176Z,12.22
2022-10-15T15:11:20.715Z,12.17
2022-10-15T15:13:49.838Z,12.10
2022-10-15T15:16:17.812Z,12.06
2022-10-15T15:18:46.444Z,11.95
2022-10-15T15:21:16.715Z,11.84
2022-10-15T15:23:44.204Z,11.77
2022-10-15T15:26:10.771Z,11.64
2022-10-15T15:28:37.442Z,11.58
2022-10-15T15:31:07.568Z,11.58
2022-10-15T15:33:35.135Z,11.51
2022-10-15T15:36:09.647Z,11.37
2022-10-15T15:41:18.419Z,10.93
2022-10-15T15:43:46.080Z,10.91
2022-10-15T15:46:13.269Z,10.82
2022-10-15T15:48:40.063Z,10.65
2022-10-15T15:51:19.722Z,10.56
2022-10-15T15:53:46.400Z,10.48
2022-10-15T15:56:13.080Z,10.37
2022-10-15T15:58:39.779Z,10.25
2022-10-15T16:01:06.469Z,10.13
2022-10-15T16:03:33.069Z,9.94
2022-10-15T16:05:59.682Z,9.51
2022-10-15T16:08:27.080Z,8.90
2022-10-15T16:10:53.652Z,9.06
2022-10-15T16:13:20.352Z,9.22
2022-10-15T16:15:46.966Z,9.38
2022-10-15T16:18:13.628Z,9.40
2022-10-15T16:20:46.228Z,9.25
2022-10-15T16:23:17.147Z,9.19
2022-10-15T16:25:44.591Z,9.14
2022-10-15T16:28:13.628Z,9.12
2022-10-15T16:30:40.302Z,9.03
2022-10-15T16:35:33.620Z,8.81
2022-10-15T16:38:00.717Z,8.82
2022-10-15T16:40:28.079Z,8.84
2022-10-15T16:42:54.635Z,8.82
2022-10-15T16:45:21.700Z,8.77
2022-10-15T16:47:49.367Z,8.76
2022-10-15T16:50:16.388Z,8.61
2022-10-15T16:52:43.012Z,8.56
2022-10-15T16:55:09.872Z,8.63
2022-10-15T16:57:36.506Z,8.66
2022-10-15T17:00:04.399Z,8.63
2022-10-15T17:02:30.996Z,8.65
2022-10-15T17:04:57.643Z,8.59
2022-10-15T17:07:24.697Z,8.51
2022-10-15T17:09:51.517Z,8.35
2022-10-15T17:12:18.504Z,7.69
2022-10-15T17:14:50.921Z,7.68
2022-10-15T17:17:17.611Z,7.61
2022-10-15T17:19:44.283Z,7.31
2022-10-15T17:22:14.170Z,7.14
2022-10-15T17:24:40.793Z,7.20
2022-10-15T17:27:07.417Z,6.80
2022-10-15T17:29:34.124Z,6.69
2022-10-15T17:32:02.508Z,6.77
2022-10-15T17:34:29.509Z,6.66
2022-10-15T17:36:56.459Z,6.44
2022-10-15T17:39:23.603Z,6.44
2022-10-15T17:41:52.041Z,6.59
2022-10-15T17:44:19.110Z,6.36
2022-10-15T17:46:45.937Z,6.21
2022-10-15T17:49:18.151Z,6.31
2022-10-15T17:51:46.127Z,6.28
2022-10-15T17:54:12.913Z,6.00
2022-10-15T17:56:40.119Z,6.07
2022-10-15T17:59:09.290Z,6.17
2022-10-15T18:01:58.784Z,5.99
2022-10-15T18:04:27.399Z,5.95
2022-10-15T18:06:55.631Z,6.06
2022-10-15T18:09:22.249Z,5.84
2022-10-15T18:11:49.167Z,5.59
2022-10-15T18:14:15.863Z,5.63
2022-10-15T18:16:43.441Z,5.70
2022-10-15T18:19:10.439Z,5.58
2022-10-15T18:21:37.259Z,5.58
2022-10-15T18:24:06.219Z,5.76
2022-10-15T18:26:32.823Z,5.63
2022-10-15T18:28:59.460Z,5.51
2022-10-15T18:31:26.499Z,5.55
2022-10-15T18:33:56.081Z,5.61
2022-10-15T18:36:28.784Z,5.42
2022-10-15T18:38:56.285Z,5.36
2022-10-15T18:41:28.620Z,5.32
2022-10-15T18:44:03.224Z,4.98
2022-10-15T18:46:30.876Z,4.83
2022-10-15T18:48:58.024Z,4.95
2022-10-15T18:51:25.600Z,5.06
2022-10-15T18:53:52.741Z,5.15
2022-10-15T18:56:20.322Z,5.16
2022-10-15T18:58:47.157Z,5.20
2022-10-15T19:01:34.704Z,5.06
2022-10-15T19:04:10.644Z,4.70
2022-10-15T19:06:40.532Z,4.60
2022-10-15T19:09:11.200Z,4.80
2022-10-15T19:11:40.330Z,4.72
2022-10-15T19:14:07.547Z,4.50
2022-10-15T19:16:35.345Z,4.58
2022-10-15T19:19:02.861Z,4.71
2022-10-15T19:21:31.861Z,4.61
2022-10-15T19:24:01.365Z,4.35
2022-10-15T19:26:30.292Z,4.50
2022-10-15T19:28:58.106Z,4.43
2022-10-15T19:31:29.220Z,4.09
2022-10-15T19:33:58.125Z,4.23
2022-10-15T19:36:31.929Z,4.36
2022-10-15T19:39:02.292Z,4.43
2022-10-15T19:41:29.015Z,4.45
2022-10-15T19:44:03.823Z,4.50
2022-10-15T19:46:30.443Z,4.53
2022-10-15T19:48:59.987Z,4.57
2022-10-15T19:51:28.684Z,4.51
2022-10-15T19:53:58.792Z,4.54
2022-10-15T19:56:26.485Z,4.60
2022-10-15T19:59:04.197Z,4.63
2022-10-15T20:01:31.284Z,4.64
2022-10-15T20:04:05.763Z,4.65
2022-10-15T20:06:38.464Z,4.69
2022-10-15T20:09:06.642Z,4.72
2022-10-15T20:11:33.828Z,4.72
2022-10-15T20:14:01.096Z,4.55
2022-10-15T20:16:32.478Z,4.21
2022-10-15T20:19:01.949Z,4.32
2022-10-15T20:21:30.482Z,4.24
2022-10-15T20:23:57.519Z,4.13
2022-10-15T20:26:24.193Z,4.35
2022-10-15T20:28:51.285Z,4.18
2022-10-15T20:31:28.215Z,4.19
2022-10-15T20:33:55.094Z,4.33
2022-10-15T20:36:24.002Z,4.41
2022-10-15T20:38:52.062Z,4.63
2022-10-15T20:41:19.790Z,4.82
2022-10-15T20:43:47.327Z,4.89
2022-10-15T20:46:19.043Z,5.00
2022-10-15T20:48:46.616Z,5.19
2022-10-15T20:51:17.556Z,5.31
2022-10-15T20:53:45.808Z,5.41
2022-10-15T20:56:12.810Z,5.53
2022-10-15T20:58:41.731Z,5.33
2022-10-15T21:01:08.356Z,5.17
2022-10-15T21:03:34.975Z,5.39
2022-10-15T21:06:01.964Z,5.53
2022-10-15T21:08:29.426Z,5.67
2022-10-15T21:11:08.368Z,5.80
2022-10-15T21:13:35.684Z,5.92
2022-10-15T21:16:05.644Z,5.99
2022-10-15T21:18:35.527Z,6.09
2022-10-15T21:21:15.307Z,6.16
2022-10-15T21:23:42.746Z,6.17
2022-10-15T21:26:17.609Z,6.27
2022-10-15T21:28:45.399Z,6.37
2022-10-15T21:31:17.440Z,6.48
2022-10-15T21:33:44.604Z,6.63
2022-10-15T21:36:15.979Z,6.62
2022-10-15T21:38:42.732Z,6.72
2022-10-15T21:41:09.561Z,6.85
2022-10-15T21:43:36.287Z,6.94
2022-10-15T21:46:09.163Z,7.05
2022-10-15T21:48:38.726Z,7.20
2022-10-15T21:51:16.904Z,7.30
2022-10-15T21:53:45.767Z,7.42
2022-10-15T21:56:12.642Z,7.57
2022-10-15T21:58:43.111Z,7.67
2022-10-15T22:01:21.970Z,7.77
2022-10-15T22:03:52.925Z,7.86
2022-10-15T22:06:21.555Z,7.92
2022-10-15T22:08:49.525Z,7.95
2022-10-15T22:11:20.987Z,7.98
2022-10-15T22:13:52.788Z,7.97
2022-10-15T22:16:21.437Z,7.90
2022-10-15T22:18:48.189Z,7.91
2022-10-15T22:21:16.244Z,7.94
2022-10-15T22:23:50.280Z,7.78
2022-10-15T22:26:19.156Z,7.82
2022-10-15T22:28:46.831Z,7.91
2022-10-15T22:31:18.905Z,7.98
2022-10-15T22:33:46.164Z,8.11
2022-10-15T22:36:24.163Z,8.19
2022-10-15T22:39:03.614Z,8.21
2022-10-15T22:41:32.465Z,8.33
2022-10-15T22:43:59.152Z,8.42
2022-10-15T22:46:26.450Z,8.50
2022-10-15T22:48:53.772Z,8.52
2022-10-15T22:51:21.180Z,8.56
2022-10-15T22:53:47.984Z,8.51
2022-10-15T22:56:19.332Z,8.50
2022-10-15T22:58:46.718Z,8.41
2022-10-15T23:01:18.073Z,8.05
2022-10-15T23:03:47.624Z,7.96
2022-10-15T23:06:15.628Z,8.17
2022-10-15T23:08:43.661Z,8.26
2022-10-15T23:11:13.867Z,8.05
2022-10-15T23:13:41.500Z,8.21
2022-10-15T23:16:15.538Z,8.18
2022-10-15T23:18:43.730Z,8.15
2022-10-15T23:21:18.092Z,8.30
2022-10-15T23:23:45.814Z,8.16
2022-10-15T23:26:16.642Z,8.27
2022-10-15T23:28:46.678Z,8.29
2022-10-15T23:31:21.998Z,8.26
2022-10-15T23:33:48.702Z,8.35
2022-10-15T23:36:15.367Z,8.07
2022-10-15T23:38:41.957Z,8.24
2022-10-15T23:41:10.560Z,8.41
2022-10-15T23:43:37.772Z,8.54
2022-10-15T23:46:04.476Z,8.68
2022-10-15T23:48:31.124Z,8.76
2022-10-15T23:51:00.963Z,8.86
2022-10-15T23:53:35.442Z,8.91
2022-10-15T23:56:03.020Z,9.01
2022-10-15T23:58:31.589Z,9.09
